Latest Weather Observations for Hobart

IDT60801

Issued at 5:21 am EDT Monday 9 December 2019 (issued every 10 minutes, with the page automatically refreshed every 10 minutes)

About weather observations | Map of weather stations | Latest weather observations for TAS | Other Formats
Station Details ID: 094029 Name: HOBART (ELLERSLIE ROAD) Lat: -42.89 Lon: 147.33 Height: 50.5 m
Data from the previous 72 hours. | See also: Recent months at Hobart
Date/Time
EDT
Temp
°C
App
Temp
°C
Dew
Point
°C
Rel
Hum
%
Delta-T
°C
Wind Press
QNH
hPa
Press
MSL
hPa
Rain since
9am
mm
Dir  Spd
km/h
Gust
km/h
Spd
kts
Gust
kts
09/05:00am 15.5 11.4 8.0 61 3.8 N 19 26 10 14 1013.7 1013.6 0.0
09/04:30am 15.0 12.1 8.3 64 3.4 NNW 13 22 7 12 1013.7 1013.6 0.0
09/04:00am 14.7 11.9 8.6 67 3.1 NNW 13 19 7 10 1013.9 1013.8 0.0
09/03:30am 14.0 11.4 9.2 73 2.4 NW 13 17 7 9 1014.0 1013.9 0.0
09/03:00am 13.9 10.5 9.3 74 2.3 NNW 17 22 9 12 1014.2 1014.1 0.0
09/02:30am 14.1 10.2 9.5 74 2.4 NNW 20 28 11 15 1014.9 1014.8 0.0
09/02:00am 13.9 11.3 9.5 75 2.3 NNW 13 20 7 11 1015.1 1015.0 0.0
09/01:30am 13.8 12.1 9.8 77 2.1 N 9 15 5 8 1015.5 1015.4 0.0
09/01:00am 13.7 11.7 10.1 79 1.9 N 11 19 6 10 1016.0 1015.9 0.0
09/12:30am 13.5 13.1 9.7 78 2.0 SW 2 13 1 7 1016.5 1016.4 0.0
09/12:00am 13.4 12.0 9.6 78 1.9 WNW 7 13 4 7 1016.7 1016.6 0.0
 
Date/Time
EDT
Temp
°C
App
Temp
°C
Dew
Point
°C
Rel
Hum
%
Delta-T
°C
Wind Press
QNH
hPa
Press
MSL
hPa
Rain since
9am
mm
Dir  Spd
km/h
Gust
km/h
Spd
kts
Gust
kts
08/11:30pm 13.6 12.2 9.6 77 2.1 ENE 7 7 4 4 1016.8 1016.7 0.0
08/11:00pm 14.0 14.0 9.8 76 2.2 CALM 0 0 0 0 1017.4 1017.3 0.0
08/10:30pm 14.1 14.1 9.9 76 2.2 CALM 0 0 0 0 1017.6 1017.5 0.0
08/10:00pm 14.1 13.0 10.1 77 2.1 SW 6 7 3 4 1018.3 1018.2 0.0
08/09:30pm 13.8 12.7 9.8 77 2.1 SW 6 7 3 4 1018.6 1018.5 0.0
08/09:00pm 14.4 12.7 10.0 75 2.3 SSW 9 13 5 7 1018.2 1018.1 0.0
08/08:30pm 14.7 13.0 9.7 72 2.6 SSE 9 11 5 6 1018.3 1018.2 0.0
08/08:00pm 15.2 12.8 10.0 71 2.7 SE 13 17 7 9 1018.1 1018.0 0.0
08/07:30pm 15.1 12.3 10.1 72 2.6 SE 15 19 8 10 1018.3 1018.2 0.0
08/07:00pm 15.6 12.5 10.2 70 2.8 SSE 17 22 9 12 1018.4 1018.3 0.0
08/06:30pm 16.9 14.5 10.1 64 3.6 SE 13 19 7 10 1017.9 1017.8 0.0
08/06:00pm 16.3 13.0 9.7 65 3.4 SSE 17 24 9 13 1017.9 1017.8 0.0
08/05:30pm 17.5 14.5 9.4 59 4.2 SE 15 22 8 12 1017.9 1017.8 0.0
08/05:00pm 17.4 14.0 9.3 59 4.2 SE 17 24 9 13 1018.1 1018.0 0.0
08/04:30pm 17.0 13.3 10.1 64 3.7 SE 20 28 11 15 1018.1 1018.0 0.0
08/04:00pm 17.0 13.0 9.2 60 4.0 SE 20 26 11 14 1018.2 1018.1 0.0
08/03:30pm 17.2 13.9 9.4 60 4.1 ESE 17 22 9 12 1018.3 1018.2 0.0
08/03:00pm 18.3 15.5 8.6 53 5.0 SE 13 17 7 9 1018.4 1018.3 0.0
08/02:30pm 17.5 13.6 8.6 56 4.6 SE 19 24 10 13 1018.3 1018.2 0.0
08/02:00pm 17.7 13.2 8.6 55 4.7 SE 22 30 12 16 1018.3 1018.2 0.0
08/01:30pm 18.0 13.8 8.3 53 5.0 SE 20 26 11 14 1018.3 1018.2 0.0
08/01:00pm 17.8 13.5 7.8 52 5.1 SE 20 28 11 15 1018.5 1018.4 0.0
08/12:30pm 17.4 13.1 6.9 50 5.2 ESE 19 22 10 12 1018.4 1018.3 0.0
08/12:00pm 17.6 14.0 6.8 49 5.4 ESE 15 19 8 10 1018.3 1018.2 0.0
08/11:30am 16.3 12.8 7.0 54 4.6 ESE 15 20 8 11 1018.3 1018.2 0.0
08/11:00am 16.4 12.4 6.8 53 4.7 ESE 17 20 9 11 1018.4 1018.3 0.0
08/10:30am 16.0 12.7 6.4 53 4.7 ESE 13 19 7 10 1018.4 1018.3 0.0
08/10:00am 16.8 13.6 6.9 52 4.9 NE 13 20 7 11 1018.6 1018.5 0.0
08/09:30am 15.8 12.7 7.1 56 4.3 NE 13 20 7 11 1019.1 1019.0 0.0
08/09:00am 15.9 13.3 6.1 52 4.7 NW 9 15 5 8 1019.2 1019.1 0.8
08/08:30am 15.1 10.6 6.1 55 4.3 NNW 19 24 10 13 1018.7 1018.6 0.8
08/08:00am 14.5 10.0 6.3 58 3.9 NNW 19 26 10 14 1018.3 1018.2 0.8
08/07:30am 13.8 11.6 6.4 61 3.6 N 7 13 4 7 1018.0 1017.9 0.8
08/07:00am 12.3 9.1 6.8 69 2.6 NNW 13 19 7 10 1017.9 1017.8 0.8
08/06:30am 9.0 6.3 5.4 78 1.6 W 9 13 5 7 1017.4 1017.3 0.8
08/06:00am 9.2 7.0 5.4 77 1.7 WSW 6 13 3 7 1017.1 1017.0 0.8
08/05:30am 9.5 7.1 5.3 75 1.9 SW 7 15 4 8 1016.6 1016.5 0.8
08/05:00am 9.7 7.5 5.5 75 1.9 WNW 6 15 3 8 1016.1 1016.0 0.8
08/04:30am 9.7 7.4 5.5 75 1.9 WNW 7 13 4 7 1015.6 1015.5 0.8
08/04:00am 10.1 8.3 5.5 73 2.1 N 4 9 2 5 1015.4 1015.3 0.8
08/03:30am 10.8 8.1 5.8 71 2.3 NNE 9 17 5 9 1015.1 1015.0 0.8
08/03:00am 11.1 8.3 5.0 66 2.8 ESE 9 13 5 7 1015.3 1015.2 0.8
08/02:30am 11.2 8.5 5.7 69 2.6 ENE 9 15 5 8 1015.4 1015.3 0.8
08/02:00am 11.1 8.0 5.4 68 2.6 NNW 11 15 6 8 1015.0 1014.9 0.8
08/01:30am 11.3 9.5 5.2 66 2.8 WNW 4 7 2 4 1014.6 1014.5 0.8
08/01:00am 12.1 8.8 4.8 61 3.3 SSW 11 17 6 9 1014.3 1014.2 0.8
08/12:30am 12.2 10.8 5.4 63 3.2 WSW 2 7 1 4 1014.1 1014.0 0.8
08/12:00am 12.7 10.4 5.8 63 3.2 SSE 7 13 4 7 1013.8 1013.7 0.8
 
Date/Time
EDT
Temp
°C
App
Temp
°C
Dew
Point
°C
Rel
Hum
%
Delta-T
°C
Wind Press
QNH
hPa
Press
MSL
hPa
Rain since
9am
mm
Dir  Spd
km/h
Gust
km/h
Spd
kts
Gust
kts
07/11:30pm 12.6 10.5 6.0 64 3.1 SSW 6 9 3 5 1013.7 1013.6 0.8
07/11:00pm 12.6 10.5 6.0 64 3.1 SE 6 11 3 6 1013.3 1013.2 0.8
07/10:30pm 12.7 9.3 5.8 63 3.2 S 13 20 7 11 1012.9 1012.8 0.8
07/10:00pm 12.8 8.2 5.7 62 3.3 SSW 19 28 10 15 1012.6 1012.5 0.8
07/09:30pm 13.3 9.1 5.5 59 3.7 SSW 17 32 9 17 1012.3 1012.2 0.8
07/09:00pm 13.4 9.2 5.6 59 3.7 SSW 17 28 9 15 1011.9 1011.8 0.8
07/08:30pm 13.7 9.6 6.1 60 3.6 SW 17 30 9 16 1011.8 1011.7 0.8
07/08:00pm 14.1 10.0 6.0 58 3.9 SSW 17 24 9 13 1011.1 1011.0 0.8
07/07:30pm 14.3 9.8 6.9 61 3.6 SW 20 37 11 20 1010.6 1010.5 0.8
07/07:00pm 14.8 11.7 7.1 60 3.8 WSW 13 24 7 13 1010.1 1010.1 0.8
07/06:30pm 14.8 10.0 7.4 61 3.7 SW 22 39 12 21 1009.4 1009.4 0.8
07/06:00pm 16.1 12.1 6.5 53 4.7 SW 17 28 9 15 1008.8 1008.8 0.8
07/05:30pm 17.0 13.0 8.2 56 4.5 SW 19 32 10 17 1008.2 1008.2 0.8
07/05:00pm 16.7 11.1 7.1 53 4.8 WSW 26 52 14 28 1007.9 1007.9 0.8
07/04:55pm 16.9 10.8 6.4 50 5.2 WSW 28 52 15 28 1007.8 1007.8 0.8
07/04:30pm 17.5 10.6 7.3 51 5.1 WSW 33 57 18 31 1007.6 1007.6 0.8
07/04:15pm 16.9 10.7 9.3 61 4.0 SW 32 50 17 27 1007.6 1007.6 0.8
07/04:06pm 16.4 11.5 8.6 60 4.0 SW 24 46 13 25 1007.2 1007.2 0.8
07/04:00pm 17.2 12.7 10.1 63 3.8 WSW 24 44 13 24 1007.3 1007.3 0.8
07/03:30pm 15.2 11.8 11.4 78 2.0 SW 20 28 11 15 1007.2 1007.2 0.6
07/03:00pm 15.9 12.7 11.9 77 2.2 SW 20 35 11 19 1006.6 1006.6 0.4
07/02:30pm 17.4 11.1 7.5 52 5.0 SW 30 48 16 26 1006.1 1006.1 0.4
07/02:00pm 18.9 12.9 7.0 46 6.0 SW 28 50 15 27 1005.8 1005.8 0.4
07/01:33pm 18.6 13.0 8.6 52 5.2 SW 28 48 15 26 1005.5 1005.5 0.2
07/01:30pm 18.3 12.8 7.7 50 5.4 SW 26 43 14 23 1005.4 1005.4 0.2
07/01:00pm 17.7 11.0 7.4 51 5.2 SW 32 52 17 28 1005.3 1005.3 0.2
07/12:55pm 16.5 10.3 6.3 51 5.0 WSW 28 52 15 28 1005.2 1005.2 0.2
07/12:52pm 16.8 11.2 7.2 53 4.8 WSW 26 48 14 26 1005.1 1005.1 0.2
07/12:30pm 16.3 13.3 7.8 57 4.3 WSW 13 30 7 16 1005.1 1005.1 0.2
07/12:00pm 15.2 13.0 8.0 62 3.6 W 9 15 5 8 1005.0 1005.0 0.2
07/11:30am 14.3 9.0 6.6 60 3.7 W 24 46 13 25 1004.9 1004.9 0.2
07/11:00am 14.6 7.6 6.2 57 4.1 W 32 56 17 30 1004.4 1004.4 0.0
07/10:30am 14.9 8.1 5.1 52 4.6 W 30 48 16 26 1004.1 1004.1 0.0
07/10:05am 14.8 8.6 4.5 50 4.8 WSW 26 48 14 26 1003.9 1003.9 0.0
07/10:02am 14.8 9.0 4.5 50 4.8 W 24 48 13 26 1003.9 1003.9 0.0
07/10:00am 14.6 9.6 4.6 51 4.7 WNW 20 46 11 25 1003.9 1003.9 0.0
07/09:30am 13.1 9.6 5.3 59 3.6 NNW 13 41 7 22 1004.0 1004.0 0.0
07/09:00am 11.9 7.9 4.9 62 3.2 NNE 15 24 8 13 1004.2 1004.2 1.4
07/08:30am 11.2 6.4 4.4 63 3.1 NNE 19 32 10 17 1004.0 1004.0 1.4
07/08:00am 11.0 6.8 4.0 62 3.1 N 15 24 8 13 1003.8 1003.8 1.4
07/07:30am 11.8 8.3 3.6 57 3.6 NNE 11 19 6 10 1003.5 1003.5 1.4
07/07:00am 12.9 6.8 2.5 49 4.6 W 24 50 13 27 1003.4 1003.4 1.4
07/06:30am 11.7 8.4 2.7 54 3.9 N 9 17 5 9 1003.4 1003.4 1.4
07/06:08am 12.5 6.2 1.5 47 4.7 WSW 24 48 13 26 1002.9 1002.8 1.4
07/06:00am 12.4 6.0 1.1 46 4.8 WSW 24 46 13 25 1002.8 1002.7 1.4
07/05:53am 12.3 5.9 1.0 46 4.8 WSW 24 46 13 25 1002.6 1002.5 1.4
07/05:50am 12.2 6.6 0.9 46 4.7 SW 20 44 11 24 1002.2 1002.1 1.4
07/05:30am 12.1 6.5 1.1 47 4.6 W 20 61 11 33 1002.7 1002.6 1.4
07/05:20am 12.1 5.7 0.8 46 4.7 WSW 24 52 13 28 1002.2 1002.1 1.4
07/05:12am 12.0 6.0 1.1 47 4.6 W 22 46 12 25 1002.0 1001.9 1.4
07/05:00am 11.8 6.3 1.7 50 4.3 WNW 20 41 11 22 1002.3 1002.2 1.4
07/04:40am 12.2 5.5 1.2 47 4.7 W 26 48 14 26 1001.9 1001.8 1.4
07/04:30am 12.1 6.1 0.8 46 4.7 WSW 22 46 12 25 1001.8 1001.7 1.4
07/04:18am 11.6 3.8 1.5 50 4.3 W 32 61 17 33 1001.7 1001.6 1.4
07/04:14am 11.6 4.5 1.5 50 4.3 NW 28 61 15 33 1001.7 1001.6 1.4
07/04:09am 11.7 5.8 1.6 50 4.3 NW 22 54 12 29 1002.0 1001.9 1.4
07/04:00am 11.7 4.6 1.6 50 4.3 W 28 54 15 29 1001.7 1001.6 1.4
07/03:31am 11.5 6.0 2.0 52 4.1 W 20 54 11 29 1001.7 1001.6 1.4
07/03:30am 11.5 6.6 2.0 52 4.1 W 17 44 9 24 1001.8 1001.7 1.4
07/03:00am 11.3 5.0 1.8 52 4.1 WSW 24 61 13 33 1002.1 1002.0 1.4
07/02:57am 11.9 5.9 1.3 48 4.5 WSW 22 61 12 33 1001.8 1001.7 1.4
07/02:30am 11.4 5.0 1.1 49 4.3 WSW 24 46 13 25 1001.7 1001.6 1.4
07/02:15am 11.2 5.7 1.7 52 4.0 NNE 20 56 11 30 1001.8 1001.7 1.4
07/02:00am 10.2 6.2 2.8 60 3.2 E 13 26 7 14 1002.2 1002.1 1.4
07/01:38am 11.1 4.0 1.4 51 4.1 W 28 63 15 34 1002.4 1002.3 1.4
07/01:30am 10.8 5.8 1.4 52 3.9 W 17 37 9 20 1002.7 1002.6 1.4
07/01:00am 10.9 6.0 1.7 53 3.9 WNW 17 54 9 29 1002.8 1002.7 1.4
07/12:53am 11.3 4.6 1.5 51 4.1 WSW 26 54 14 29 1002.4 1002.3 1.4
07/12:30am 10.7 6.1 1.5 53 3.9 NW 15 39 8 21 1002.4 1002.3 1.4
07/12:00am 10.2 7.2 2.3 58 3.4 NNW 7 13 4 7 1002.8 1002.7 1.4
 
Date/Time
EDT
Temp
°C
App
Temp
°C
Dew
Point
°C
Rel
Hum
%
Delta-T
°C
Wind Press
QNH
hPa
Press
MSL
hPa
Rain since
9am
mm
Dir  Spd
km/h
Gust
km/h
Spd
kts
Gust
kts
06/11:30pm 10.1 6.0 2.5 59 3.2 N 13 26 7 14 1002.7 1002.6 1.4
06/11:00pm 10.6 6.9 2.2 56 3.6 ESE 11 20 6 11 1002.5 1002.4 1.4
06/10:30pm 11.0 5.9 1.0 50 4.2 SW 17 48 9 26 1002.5 1002.4 1.4
06/10:00pm 11.1 5.7 1.1 50 4.2 W 19 39 10 21 1002.5 1002.4 1.4
06/09:55pm 11.1 6.0 0.8 49 4.3 NW 17 39 9 21 1002.5 1002.4 1.4
06/09:30pm 10.8 7.0 1.6 53 3.9 SSW 11 20 6 11 1002.2 1002.1 1.4
06/09:00pm 11.3 6.3 1.3 50 4.2 WNW 17 35 9 19 1001.5 1001.4 1.4
06/08:36pm 11.3 5.0 1.3 50 4.2 W 24 56 13 30 1001.1 1001.0 1.4
06/08:30pm 11.2 6.6 1.5 51 4.1 W 15 30 8 16 1001.1 1001.0 1.4
06/08:15pm 11.3 5.9 1.5 51 4.1 SW 19 56 10 30 1000.7 1000.6 1.4
06/08:04pm 11.6 7.0 1.5 50 4.3 SSW 15 44 8 24 1000.3 1000.2 1.4
06/08:00pm 11.4 7.7 2.4 54 3.9 SSW 11 19 6 10 1000.5 1000.4 1.4
06/07:36pm 11.8 4.9 2.3 52 4.1 WSW 28 48 15 26 1000.1 1000.0 1.4
06/07:30pm 11.8 5.3 2.5 53 4.0 WSW 26 46 14 25 1000.0 999.9 1.4
06/07:00pm 12.0 6.7 3.0 54 4.0 WSW 20 52 11 28 999.4 999.3 1.4
06/06:58pm 12.0 6.9 3.0 54 4.0 WSW 19 52 10 28 999.2 999.1 1.4
06/06:30pm 11.8 4.8 4.1 59 3.5 WSW 30 50 16 27 998.7 998.6 1.4
06/06:17pm 12.3 5.2 3.8 56 3.8 WSW 30 59 16 32 998.2 998.1 1.4
06/06:16pm 12.2 5.1 3.7 56 3.8 WSW 30 59 16 32 998.2 998.1 1.4
06/06:00pm 11.5 2.7 3.8 59 3.5 W 39 67 21 36 997.9 997.8 1.4
06/05:37pm 12.2 4.2 3.9 57 3.7 W 35 82 19 44 997.7 997.6 1.4
06/05:30pm 11.9 5.4 4.6 61 3.3 W 28 54 15 29 998.0 997.9 1.4
06/05:01pm 12.2 4.6 5.8 65 3.0 WSW 35 70 19 38 998.0 997.9 1.0
06/05:00pm 12.4 4.8 5.8 64 3.1 WSW 35 70 19 38 998.0 997.9 1.0
06/04:30pm 14.3 7.6 3.7 49 4.8 WSW 28 63 15 34 997.5 997.4 0.6
06/04:00pm 13.9 6.7 5.0 55 4.2 WNW 32 54 17 29 996.8 996.7 0.6
06/03:50pm 15.4 10.4 4.5 48 5.1 WNW 20 48 11 26 996.4 996.3 0.6
06/03:30pm 14.5 9.9 6.6 59 3.8 WSW 20 33 11 18 996.8 996.7 0.6
06/03:00pm 15.8 10.3 3.9 45 5.6 WNW 22 41 12 22 996.2 996.1 0.6
06/02:39pm 16.3 8.5 2.7 40 6.2 W 33 69 18 37 995.9 995.8 0.6
06/02:38pm 16.4 8.8 2.8 40 6.2 W 32 69 17 37 995.8 995.7 0.6
06/02:34pm 16.8 10.3 2.4 38 6.5 W 26 69 14 37 995.7 995.6 0.6
06/02:30pm 16.8 10.8 3.1 40 6.3 W 24 48 13 26 995.9 995.8 0.6
06/02:23pm 16.9 10.1 5.2 46 5.6 WNW 30 48 16 26 995.9 995.8 0.6
06/02:09pm 17.2 10.9 3.8 41 6.3 WNW 26 46 14 25 995.6 995.5 0.6
06/02:00pm 16.7 7.7 2.7 39 6.4 WNW 39 74 21 40 995.7 995.6 0.6
06/01:52pm 16.9 8.2 2.1 37 6.7 W 37 74 20 40 995.6 995.5 0.6
06/01:47pm 17.1 8.9 2.7 38 6.6 W 35 61 19 33 995.7 995.6 0.6
06/01:45pm 17.1 9.3 2.7 38 6.6 W 33 61 18 33 995.6 995.5 0.6
06/01:41pm 16.7 8.7 1.6 36 6.7 WNW 33 61 18 33 995.4 995.3 0.6
06/01:38pm 17.2 9.6 3.1 39 6.5 WNW 32 52 17 28 995.7 995.6 0.6
06/01:30pm 16.3 8.1 4.7 46 5.5 WNW 37 65 20 35 995.6 995.5 0.6
06/01:21pm 17.4 10.5 2.6 37 6.8 WNW 28 65 15 35 995.5 995.4 0.6
06/01:00pm 16.7 7.6 4.1 43 6.0 WNW 41 69 22 37 995.3 995.2 0.6
06/12:49pm 16.4 9.6 3.1 41 6.1 WNW 28 61 15 33 995.3 995.2 0.6
06/12:47pm 16.8 10.5 3.8 42 6.1 WNW 26 61 14 33 995.3 995.2 0.6
06/12:30pm 16.7 9.1 3.7 42 6.0 WNW 33 63 18 34 995.3 995.2 0.6
06/12:02pm 15.4 9.0 5.0 50 4.9 W 28 50 15 27 995.3 995.2 0.6
06/12:00pm 15.5 10.1 6.2 54 4.5 W 24 39 13 21 995.3 995.2 0.6
06/11:30am 12.2 8.1 7.7 74 2.2 NNW 19 35 10 19 995.7 995.6 0.6
06/11:00am 11.9 6.2 6.6 70 2.5 NNW 26 37 14 20 995.9 995.8 0.2
06/10:30am 11.0 5.7 6.6 74 2.1 NNW 24 41 13 22 996.2 996.1 0.2
06/10:12am 12.0 6.7 5.0 62 3.2 WNW 22 46 12 25 996.1 996.0 0.2
06/10:00am 11.0 5.5 5.7 70 2.5 NNW 24 39 13 21 995.9 995.8 0.2
06/09:41am 12.5 5.4 5.4 62 3.3 NW 32 54 17 29 995.7 995.6 0.0
06/09:30am 12.3 6.7 5.2 62 3.3 NW 24 43 13 23 995.6 995.5 0.0
06/09:00am 12.4 8.1 5.3 62 3.3 WNW 17 30 9 16 995.9 995.8 0.0
06/08:30am 12.3 6.8 3.8 56 3.8 WNW 22 44 12 24 995.2 995.1 0.0
06/08:01am 11.6 4.9 3.4 57 3.6 W 28 56 15 30 994.5 994.4 0.0
06/08:00am 11.7 5.4 3.5 57 3.7 W 26 56 14 30 994.5 994.4 0.0
06/07:42am 10.7 3.8 4.4 65 2.8 NW 30 48 16 26 994.6 994.5 0.0
06/07:30am 10.4 3.5 4.5 67 2.6 NW 30 46 16 25 994.3 994.2 0.0
06/07:04am 10.2 3.0 4.8 69 2.4 NW 32 56 17 30 994.0 993.9 0.0
06/07:00am 10.5 3.3 4.9 68 2.6 NW 32 46 17 25 994.1 994.0 0.0
06/06:46am 11.3 3.9 3.8 60 3.3 NW 32 48 17 26 993.8 993.7 0.0
06/06:39am 12.3 4.2 3.0 53 4.1 WNW 35 72 19 39 993.8 993.7 0.0
06/06:31am 12.3 5.7 1.9 49 4.5 WNW 26 72 14 39 993.5 993.4 0.0
06/06:30am 11.9 5.4 2.6 53 4.0 WNW 26 57 14 31 993.7 993.6 0.0
06/06:20am 11.6 5.8 2.1 52 4.1 WNW 22 46 12 25 993.4 993.3 0.0
06/06:00am 10.0 4.2 4.2 67 2.6 NW 24 48 13 26 994.2 994.1 0.0
06/05:30am 9.7 2.6 5.3 74 2.0 NW 32 50 17 27 994.7 994.6 0.0
06/05:23am 9.8 3.4 5.0 72 2.2 NW 28 46 15 25 994.7 994.6 0.0

Other formats

Comma delimited format used in spreadsheet applications
http://www.bom.gov.au/fwo/IDT60801/IDT60801.94970.axf

JavaScript Object Notation format (JSON) in row-major order
http://www.bom.gov.au/fwo/IDT60801/IDT60801.94970.json

Data quality

Most of these data are generated automatically and are frequently updated. Quality checks on data are not normally performed. It is possible for incorrect values to appear. Refer to information at About Latest Weather Observations and please check the disclaimer before using these data.